Flight Track Log - Related Links

Times and Time Zones

All times are in EDT time to prevent confusion due to time zone crossing. See the SWA2403 flight status page for this flight to view local times or setup timezone preferences in your user account.

Time Position Orientation Groundspeed Altitude Reporting Facility
EDT Latitude Longitude Course Direction KTS MPH feet Rate Location/Type
Fri 05:08:27 PM 38.1817 -85.7606 266° West 156 180 1,600  Level FAA TRACON SMA TRACON (SMA)
Fri 05:08:47 PM 38.1806 -85.7828 266° West 164 189 2,500 2,400 Climbing FAA TRACON SMA TRACON (SMA)
Fri 05:09:07 PM 38.1797 -85.8036 267° West 185 213 3,200 2,341 Climbing FAA TRACON SMA TRACON (SMA)
Fri 05:09:28 PM 38.1783 -85.8325 267° West 210 242 4,100 2,400 Climbing FAA TRACON SMA TRACON (SMA)
Fri 05:09:47 PM 38.1683 -85.8550 241° Southwest 235 270 4,800 1,385 Climbing FAA TRACON SMA TRACON (SMA)
Fri 05:10:07 PM 38.1539 -85.8747 227° Southwest 246 283 5,000 300 Climbing FAA TRACON SMA TRACON (SMA)
Fri 05:10:27 PM 38.1361 -85.8983 226° Southwest 242 278 5,000 150 Level FAA TRACON SMA TRACON (SMA)
Fri 05:10:47 PM 38.1222 -85.9172 227° Southwest 239 275 5,100  Climbing FAA TRACON SMA TRACON (SMA)
Fri 05:11:08 PM 38.1081 -85.9353 225° Southwest 237 273 5,000  Descending FAA TRACON SMA TRACON (SMA)
Fri 05:11:27 PM 38.0903 -85.9581 225° Southwest 235 270 5,100 154 Climbing FAA TRACON SMA TRACON (SMA)
Fri 05:11:47 PM 38.0761 -85.9764 226° Southwest 236 272 5,100  Level FAA TRACON SMA TRACON (SMA)
Fri 05:12:07 PM 38.0622 -85.9950 227° Southwest 235 270 5,100 600 Level FAA TRACON SMA TRACON (SMA)
Fri 05:12:27 PM 38.0442 -86.0183 226° Southwest 239 275 5,500 2,049 Climbing FAA TRACON SMA TRACON (SMA)
Fri 05:12:48 PM 38.0344 -86.0414 242° Southwest 244 281 6,500 3,150 Climbing FAA TRACON SMA TRACON (SMA)
Fri 05:13:07 PM 38.0331 -86.0675 266° West 244 281 7,600 3,846 Climbing FAA TRACON SMA TRACON (SMA)
Fri 05:13:27 PM 38.0317 -86.1006 267° West 243 280 9,000 3,512 Climbing FAA TRACON SMA TRACON (SMA)
Fri 05:13:48 PM 38.0306 -86.1267 267° West 243 280 10,000 2,550 Climbing FAA TRACON SMA TRACON (SMA)
Fri 05:14:07 PM 38.0300 -86.1544 269° West 248 285 10,700 1,650 Climbing FAA TRACON SMA TRACON (SMA)
Fri 05:14:28 PM 38.0289 -86.1928 268° West 271 312 11,100 1,500 Climbing FAA TRACON SMA TRACON (SMA)
Fri 05:14:47 PM 38.0278 -86.2258 268° West 296 341 11,700 2,308 Climbing FAA TRACON SMA TRACON (SMA)
Fri 05:15:07 PM 38.0264 -86.2597 267° West 310 357 12,600 3,200 Climbing FAA TRACON SMA TRACON (SMA)
Fri 05:15:47 PM 38.0242 -86.3369 268° West 318 366 14,900 3,100 Climbing FAA TRACON SMA TRACON (SMA)
Fri 05:16:07 PM 38.0228 -86.3719 267° West 320 368 15,700 2,850 Climbing FAA TRACON SMA TRACON (SMA)
Fri 05:16:27 PM 38.0217 -86.4164 268° West 325 374 16,800 2,850 Climbing FAA TRACON SMA TRACON (SMA)
Fri 05:16:47 PM 38.0206 -86.4525 268° West 330 380 17,600 2,341 Climbing FAA TRACON SMA TRACON (SMA)
Fri 05:17:08 PM 38.0194 -86.4889 268° West 334 384 18,400 2,550 Climbing FAA TRACON SMA TRACON (SMA)
Fri 05:17:27 PM 38.0186 -86.5353 269° West 340 391 19,300 2,550 Climbing FAA TRACON SMA TRACON (SMA)
Fri 05:17:48 PM 38.0175 -86.5731 268° West 344 396 20,100 2,400 Climbing FAA TRACON SMA TRACON (SMA)
Fri 05:18:07 PM 38.0156 -86.6106 266° West 347 399 20,900 2,769 Climbing FAA TRACON SMA TRACON (SMA)
Fri 05:18:27 PM 38.0167 -86.6481 272° West 347 399 21,900 3,073 Climbing FAA TRACON SMA TRACON (SMA)
Fri 05:18:48 PM 38.0239 -86.6956 281° West 353 406 23,000 2,850 Climbing FAA TRACON SMA TRACON (SMA)
Fri 05:19:07 PM 38.0331 -86.7328 287° West 358 412 23,800 2,400 Climbing FAA TRACON SMA TRACON (SMA)
Fri 05:19:28 PM 38.0442 -86.7797 287° West 360 414 24,600 1,950 Climbing FAA TRACON SMA TRACON (SMA)
Fri 05:19:47 PM 38.0528 -86.8178 286° West 362 417 25,100 1,538 Climbing FAA TRACON SMA TRACON (SMA)
Fri 05:20:07 PM 38.0619 -86.8564 287° West 366 421 25,600 1,350 Climbing FAA TRACON SMA TRACON (SMA)
Fri 05:20:27 PM 38.0719 -86.8956 288° West 372 428 26,000 1,350 Climbing FAA TRACON SMA TRACON (SMA)
Fri 05:20:47 PM 38.0836 -86.9453 287° West 379 436 26,500 1,317 Climbing FAA TRACON SMA TRACON (SMA)
Fri 05:21:08 PM 38.0942 -86.9856 288° West 385 443 26,900 1,263 Climbing FAA TRACON SMA TRACON (SMA)
Fri 05:21:25 PM 38.0978 -87.0175 278° West 385 443 27,300 1,367 Climbing Indianapolis Center
Fri 05:22:27 PM 38.1319 -87.1569 287° West 400 460 28,700 1,317 Climbing Indianapolis Center
Fri 05:23:28 PM 38.1653 -87.2972 287° West 406 467 30,000 1,024 Climbing Indianapolis Center
Fri 05:24:30 PM 38.1964 -87.4342 286° West 400 460 30,800 726 Climbing Indianapolis Center
Fri 05:25:32 PM 38.2275 -87.5681 287° West 394 453 31,500 976 Climbing Indianapolis Center
Fri 05:26:33 PM 38.2575 -87.7033 286° West 394 453 32,800 1,122 Climbing Indianapolis Center
Fri 05:27:35 PM 38.2894 -87.8417 286° West 403 464 33,800 1,258 Climbing Indianapolis Center
Fri 05:28:37 PM 38.3211 -87.9783 286° West 403 464 35,400 1,073 Climbing Indianapolis Center
Fri 05:29:38 PM 38.3517 -88.1100 287° West 391 450 36,000 281 Climbing Indianapolis Center
Fri 05:30:45 PM 38.3889 -88.2750 286° West 395 455 36,000  Level Kansas City Center
Fri 05:31:50 PM 38.4197 -88.4125 286° West 399 459 36,000  Level Kansas City Center
Fri 05:32:50 PM 38.4492 -88.5497 285° West 399 459 36,000  Level Kansas City Center
Fri 05:33:51 PM 38.4814 -88.6972 286° West 403 464 36,000  Level Kansas City Center
Fri 05:34:55 PM 38.5136 -88.8444 286° West 401 461 36,000  Level Kansas City Center
Fri 05:35:56 PM 38.5439 -88.9819 286° West 402 463 36,000  Level Kansas City Center
Fri 05:36:57 PM 38.5739 -89.1186 286° West 402 463 36,000  Level Kansas City Center
Fri 05:38:00 PM 38.6067 -89.2667 286° West 404 465 36,000  Level Kansas City Center
Fri 05:39:02 PM 38.6358 -89.4053 285° West 406 467 36,000  Level Kansas City Center
Fri 05:40:03 PM 38.6672 -89.5533 285° West 403 464 36,000  Level Kansas City Center
Fri 05:41:06 PM 38.6722 -89.6811 273° West 386 444 36,000  Level Kansas City Center
Fri 05:42:07 PM 38.6772 -89.8169 273° West 384 442 36,000  Level Kansas City Center
Fri 05:43:10 PM 38.6822 -89.9528 273° West 383 441 36,000  Level Kansas City Center
Fri 05:44:11 PM 38.6894 -90.1133 273° West 390 449 36,000  Level Kansas City Center
Fri 05:45:14 PM 38.6933 -90.2536 272° West 393 452 36,000  Level Kansas City Center
Fri 05:46:15 PM 38.6983 -90.3922 273° West 391 450 36,000  Level Kansas City Center
Fri 05:47:19 PM 38.7039 -90.5325 273° West 391 450 36,000  Level Kansas City Center
Fri 05:48:20 PM 38.7053 -90.6892 271° West 393 452 36,000  Level Kansas City Center
Fri 05:49:23 PM 38.7097 -90.8303 272° West 396 456 36,000  Level Kansas City Center
Fri 05:50:24 PM 38.7136 -90.9703 272° West 396 456 36,000  Level Kansas City Center
Fri 05:51:25 PM 38.7183 -91.1114 272° West 397 457 36,000  Level Kansas City Center
Fri 05:52:29 PM 38.7222 -91.2506 272° West 394 453 36,000  Level Kansas City Center
Fri 05:53:29 PM 38.7250 -91.3903 272° West 393 452 36,000  Level Kansas City Center
Fri 05:54:31 PM 38.7294 -91.5589 272° West 395 455 36,000  Level Kansas City Center
Fri 05:55:34 PM 38.7322 -91.7000 271° West 396 456 36,000  Level Kansas City Center
Fri 05:56:35 PM 38.7344 -91.8558 271° West 398 458 36,000  Level Kansas City Center
Fri 05:57:39 PM 38.7369 -91.9978 271° West 398 458 36,000  Level Kansas City Center
Fri 05:58:40 PM 38.7394 -92.1389 271° West 397 457 36,000  Level Kansas City Center
Fri 05:59:41 PM 38.7411 -92.2786 271° West 395 455 36,000  Level Kansas City Center
Fri 06:00:45 PM 38.7428 -92.4147 271° West 388 447 36,000  Level Kansas City Center
Fri 06:01:46 PM 38.7456 -92.5503 272° West 384 442 36,000  Level Kansas City Center
Fri 06:02:49 PM 38.7464 -92.7142 270° West 384 442 36,000  Level Kansas City Center
Fri 06:03:50 PM 38.7483 -92.8508 271° West 385 443 36,000  Level Kansas City Center
Fri 06:04:53 PM 38.7497 -92.9875 271° West 384 442 36,000  Level Kansas City Center
Fri 06:05:55 PM 38.7508 -93.1231 271° West 382 440 36,000  Level Kansas City Center
Fri 06:06:58 PM 38.7517 -93.2603 270° West 384 442 36,000  Level Kansas City Center
Fri 06:08:00 PM 38.7519 -93.3992 270° West 388 447 36,000  Level Kansas City Center
Fri 06:09:00 PM 38.7525 -93.5667 270° West 391 450 36,000  Level Kansas City Center
Fri 06:10:04 PM 38.7531 -93.7103 270° West 399 459 36,000  Level Kansas City Center
Fri 06:11:06 PM 38.7544 -93.8522 271° West 393 452 36,000  Level Kansas City Center
Fri 06:12:07 PM 38.7553 -93.9847 271° West 390 449 36,000  Level Kansas City Center
Fri 06:13:10 PM 38.7556 -94.1400 270° West 390 449 36,000  Level Kansas City Center
Fri 06:14:12 PM 38.7553 -94.2728 270° West 390 449 36,000  Level Kansas City Center
Fri 06:15:12 PM 38.7553 -94.4247 270° West 383 441 36,000  Level Kansas City Center
Fri 06:16:14 PM 38.7550 -94.5567 270° West 386 444 36,000  Level Kansas City Center
Fri 06:17:17 PM 38.7539 -94.7111 270° West 387 445 36,000  Level Kansas City Center
Fri 06:18:18 PM 38.7531 -94.8450 270° West 391 450 36,000  Level Kansas City Center
Fri 06:19:20 PM 38.7525 -94.9797 270° West 393 452 36,000  Level Kansas City Center
Fri 06:20:23 PM 38.7508 -95.1375 269° West 394 453 36,000 242 Level Kansas City Center
Fri 06:21:24 PM 38.7497 -95.2728 269° West 394 453 36,500 720 Climbing Kansas City Center
Fri 06:22:28 PM 38.7478 -95.4308 269° West 396 456 37,500 726 Climbing Kansas City Center
Fri 06:23:28 PM 38.7464 -95.5669 269° West 397 457 38,000 242 Climbing Kansas City Center
Fri 06:24:32 PM 38.7436 -95.7267 269° West 399 459 38,000  Level Kansas City Center
Fri 06:25:33 PM 38.7419 -95.8664 269° West 408 470 38,000  Level Kansas City Center
Fri 06:26:35 PM 38.7400 -96.0025 269° West 398 458 38,000  Level Kansas City Center
Fri 06:27:38 PM 38.7369 -96.1606 269° West 398 458 38,000  Level Kansas City Center
Fri 06:28:40 PM 38.7344 -96.2936 269° West 392 451 38,000  Level Kansas City Center
Fri 06:29:40 PM 38.7314 -96.4522 269° West 397 457 38,000  Level Kansas City Center
Fri 06:30:44 PM 38.7258 -96.5786 267° West 397 457 38,000  Level Kansas City Center
Fri 06:31:45 PM 38.7222 -96.7489 268° West 399 459 38,000  Level Kansas City Center
Fri 06:32:49 PM 38.7219 -96.8939 270° West 406 467 38,000  Level Kansas City Center
Fri 06:33:50 PM 38.7186 -97.0361 268° West 402 463 38,000  Level Kansas City Center
Fri 06:34:53 PM 38.7144 -97.1783 268° West 401 461 38,000  Level Kansas City Center
Fri 06:35:54 PM 38.7103 -97.3197 268° West 401 461 38,000  Level Kansas City Center
Fri 06:36:56 PM 38.7061 -97.4608 268° West 399 459 38,000  Level Kansas City Center
Fri 06:37:59 PM 38.7014 -97.6303 268° West 399 459 38,000  Level Kansas City Center
Fri 06:39:00 PM 38.6967 -97.7764 268° West 400 460 38,000  Level Kansas City Center
Fri 06:40:01 PM 38.6925 -97.9128 268° West 400 460 38,000  Level Kansas City Center
Fri 06:41:05 PM 38.6883 -98.0531 268° West 398 458 38,000  Level Kansas City Center
Fri 06:42:04 PM 38.6828 -98.1925 267° West 396 456 38,000  Level Kansas City Center
Fri 06:43:08 PM 38.6764 -98.3631 267° West 399 459 38,000  Level Kansas City Center
Fri 06:44:09 PM 38.6725 -98.5056 268° West 401 461 38,000  Level Kansas City Center
Fri 06:45:12 PM 38.6664 -98.6478 267° West 403 464 38,000  Level Kansas City Center
Fri 06:46:13 PM 38.6617 -98.7900 268° West 402 463 38,000  Level Kansas City Center
Fri 06:47:16 PM 38.6553 -98.9331 267° West 404 465 38,000  Level Kansas City Center
Fri 06:48:17 PM 38.6489 -99.0756 267° West 404 465 38,000  Level Kansas City Center
Fri 06:49:21 PM 38.6411 -99.2464 267° West 403 464 38,000  Level Kansas City Center
Fri 06:50:22 PM 38.6333 -99.3897 266° West 404 465 38,000  Level Kansas City Center
Fri 06:51:01 PM 38.6308 -99.4789 268° West 400 460 38,000  Level Denver Center
Fri 06:52:15 PM 38.6231 -99.6361 266° West 398 458 38,000  Level Denver Center
Fri 06:53:18 PM 38.6158 -99.7944 267° West 399 459 38,000  Level Denver Center
Fri 06:54:32 PM 38.6067 -99.9744 266° West 399 459 38,000  Level Kansas City Center
Fri 06:55:22 PM 38.6014 -100.0881 267° West 402 463 38,000  Level Denver Center
Fri 06:56:24 PM 38.5936 -100.2464 266° West 402 463 38,000  Level Denver Center
Fri 06:57:26 PM 38.5861 -100.3808 266° West 399 459 38,000  Level Denver Center
Fri 06:58:27 PM 38.5772 -100.5406 266° West 403 464 38,000  Level Denver Center
Fri 06:59:29 PM 38.5706 -100.6539 266° West 404 465 38,000  Level Denver Center
Fri 07:00:31 PM 38.5611 -100.8364 266° West 406 467 38,000  Level Denver Center
Fri 07:01:33 PM 38.5519 -100.9681 265° West 394 453 38,000  Level Denver Center
Fri 07:02:35 PM 38.5431 -101.1258 266° West 397 457 38,000  Level Denver Center
Fri 07:03:37 PM 38.5347 -101.2589 265° West 395 455 38,000  Level Denver Center
Fri 07:04:39 PM 38.5261 -101.4136 266° West 392 451 38,000  Level Denver Center
Fri 07:05:41 PM 38.5169 -101.5475 265° West 396 456 38,000  Level Denver Center
Fri 07:06:43 PM 38.5067 -101.7036 265° West 396 456 38,000  Level Denver Center
Fri 07:07:46 PM 38.4989 -101.8356 266° West 393 452 38,000  Level Denver Center
Fri 07:08:48 PM 38.4878 -101.9914 265° West 395 455 38,000  Level Denver Center
Fri 07:09:50 PM 38.4778 -102.1261 265° West 399 459 38,000  Level Denver Center
Fri 07:10:52 PM 38.4678 -102.2847 265° West 402 463 38,000  Level Denver Center
Fri 07:11:54 PM 38.4583 -102.4206 265° West 402 463 38,000  Level Denver Center
Fri 07:12:56 PM 38.4456 -102.5797 264° West 405 466 38,000  Level Denver Center
Fri 07:13:58 PM 38.4358 -102.7164 265° West 405 466 38,000  Level Denver Center
Fri 07:15:00 PM 38.4231 -102.8758 264° West 406 467 38,000  Level Denver Center
Fri 07:16:02 PM 38.4139 -103.0103 265° West 399 459 38,000  Level Denver Center
Fri 07:17:04 PM 38.4025 -103.1636 265° West 391 450 38,000  Level Denver Center
Fri 07:18:06 PM 38.3928 -103.2931 265° West 386 444 38,000  Level Denver Center
Fri 07:19:08 PM 38.3811 -103.4236 264° West 387 445 38,000  Level Denver Center
Fri 07:20:10 PM 38.3681 -103.5908 264° West 404 465 38,000  Level Denver Center
Fri 07:21:12 PM 38.3569 -103.7283 264° West 408 470 38,000  Level Denver Center
Fri 07:22:14 PM 38.3436 -103.8869 264° West 406 467 38,000  Level Denver Center
Fri 07:23:16 PM 38.3331 -104.0208 264° West 399 459 38,000  Level Denver Center
Fri 07:24:17 PM 38.3206 -104.1550 263° West 400 460 38,000  Level Denver Center
Fri 07:25:19 PM 38.3072 -104.3142 264° West 405 466 38,000  Level Denver Center
Fri 07:26:21 PM 38.2942 -104.4519 263° West 410 472 38,000  Level Denver Center
Fri 07:27:23 PM 38.2808 -104.6081 264° West 402 463 38,000  Level Denver Center
Fri 07:28:25 PM 38.2692 -104.7453 264° West 406 467 38,000  Level Denver Center
Fri 07:29:27 PM 38.2531 -104.9056 263° West 410 472 38,000  Level Denver Center
Fri 07:30:29 PM 38.2414 -105.0389 264° West 400 460 38,000  Level Denver Center
Fri 07:31:31 PM 38.2267 -105.1908 263° West 391 450 38,000  Level Denver Center
Fri 07:32:33 PM 38.2147 -105.3225 263° West 393 452 38,000  Level Denver Center
Fri 07:33:35 PM 38.1989 -105.4783 263° West 397 457 38,000  Level Denver Center
Fri 07:34:37 PM 38.1869 -105.6119 264° West 398 458 38,000  Level Denver Center
Fri 07:35:39 PM 38.1708 -105.7644 262° West 392 451 38,000  Level Denver Center
Fri 07:36:41 PM 38.1578 -105.8975 263° West 396 456 38,000  Level Denver Center
Fri 07:37:43 PM 38.1417 -106.0500 262° West 391 450 38,000  Level Denver Center
Fri 07:38:45 PM 38.1281 -106.1811 263° West 380 437 38,000  Level Denver Center
Fri 07:39:47 PM 38.1136 -106.3153 262° West 381 438 38,000  Level Denver Center
Fri 07:40:49 PM 38.0997 -106.4469 262° West 376 433 38,000  Level Denver Center
Fri 07:41:51 PM 38.0858 -106.5833 263° West 377 434 38,000  Level Denver Center
Fri 07:42:53 PM 38.0703 -106.7311 262° West 378 435 38,000  Level Denver Center
Fri 07:43:55 PM 38.0550 -106.8594 261° West 383 441 38,000  Level Denver Center
Fri 07:44:57 PM 38.0383 -107.0083 262° West 382 440 38,000  Level Denver Center
Fri 07:45:59 PM 38.0247 -107.1364 262° West 383 441 38,000  Level Denver Center
Fri 07:47:01 PM 38.0119 -107.2486 262° West 383 441 38,000  Level Denver Center
Fri 07:48:03 PM 37.9919 -107.4186 262° West 382 440 38,000  Level Denver Center
Fri 07:49:05 PM 37.9769 -107.5483 262° West 389 448 38,000  Level Denver Center
Fri 07:50:07 PM 37.9600 -107.6981 262° West 386 444 38,000  Level Denver Center
Fri 07:51:09 PM 37.9444 -107.8283 261° West 388 447 38,000  Level Denver Center
Fri 07:52:11 PM 37.9275 -107.9769 262° West 385 443 38,000  Level Denver Center
Fri 07:53:13 PM 37.9114 -108.1044 261° West 383 441 38,000  Level Denver Center
Fri 07:54:16 PM 37.8933 -108.2553 261° West 387 445 38,000  Level Denver Center
Fri 07:55:18 PM 37.8775 -108.3864 261° West 393 452 38,000  Level Denver Center
Fri 07:56:20 PM 37.8589 -108.5356 261° West 388 447 38,000  Level Denver Center
Fri 07:57:34 PM 37.8425 -108.6650 261° West 389 448 38,000  Level Denver Center
Fri 07:58:36 PM 37.8203 -108.8381 261° West 390 449 38,000  Level Denver Center
Fri 07:59:40 PM 37.8011 -108.9667 259° West 389 448 38,000  Level Denver Center
Fri 08:00:42 PM 37.7628 -109.1144 252° West 396 456 38,000  Level Denver Center
Fri 08:01:44 PM 37.7319 -109.2419 253° West 397 457 38,000  Level Denver Center
Fri 08:02:46 PM 37.6947 -109.3894 252° West 396 456 38,000  Level Denver Center
Fri 08:03:48 PM 37.6633 -109.5153 253° West 394 453 38,000  Level Denver Center
Fri 08:04:49 PM 37.6317 -109.6422 253° West 396 456 38,000  Level Denver Center
Fri 08:05:52 PM 37.5950 -109.7842 252° West 386 444 38,000  Level Denver Center
Fri 08:06:53 PM 37.5689 -109.8869 252° West 387 445 38,000  Level Denver Center
Fri 08:07:56 PM 37.5278 -110.0489 252° West 382 440 38,000  Level Denver Center
Fri 08:08:58 PM 37.4914 -110.1906 252° West 381 438 38,000  Level Denver Center
Fri 08:10:00 PM 37.4553 -110.3267 252° West 384 442 38,000 -97 Level Denver Center
Fri 08:11:02 PM 37.4231 -110.4553 253° West 385 443 37,800 -581 Descending Denver Center
Fri 08:12:04 PM 37.3894 -110.5808 251° West 382 440 36,800 -919 Descending Denver Center
Fri 08:13:06 PM 37.3572 -110.7047 252° West 375 432 35,900 -927 Descending Denver Center
Fri 08:14:07 PM 37.3242 -110.8286 251° West 373 429 34,900 -927 Descending Denver Center
Fri 08:15:09 PM 37.2914 -110.9522 252° West 373 429 34,000 -919 Descending Denver Center
Fri 08:16:11 PM 37.2594 -111.0783 252° West 378 435 33,000 -968 Descending Denver Center
Fri 08:17:13 PM 37.2192 -111.2325 252° West 385 443 32,000 -484 Descending Denver Center
Fri 08:18:15 PM 37.1814 -111.3636 250° West 393 452 32,000  Level Denver Center
Fri 08:19:17 PM 37.1461 -111.4950 251° West 395 455 32,000  Level Denver Center
Fri 08:20:19 PM 37.1136 -111.6225 252° West 389 448 32,000  Level Denver Center
Fri 08:21:21 PM 37.0794 -111.7503 252° West 387 445 32,000  Level Denver Center
Fri 08:22:23 PM 37.0519 -111.8817 255° West 390 449 32,000  Level Denver Center
Fri 08:23:25 PM 37.0253 -112.0119 256° West 388 447 32,000  Level Denver Center
Fri 08:24:27 PM 36.9922 -112.1678 255° West 387 445 32,000  Level Denver Center
Fri 08:24:44 PM 36.9842 -112.1961 250° West 386 444 32,000  Level Los Angeles Center
Fri 08:25:46 PM 36.9578 -112.3253 256° West 385 443 32,000  Level Los Angeles Center
Fri 08:26:48 PM 36.9303 -112.4569 255° West 389 448 32,000  Level Los Angeles Center
Fri 08:27:51 PM 36.8975 -112.6144 255° West 390 449 32,000  Level Los Angeles Center
Fri 08:28:53 PM 36.8692 -112.7444 255° West 387 445 32,000  Level Los Angeles Center
Fri 08:29:55 PM 36.8411 -112.8731 255° West 385 443 32,000  Level Los Angeles Center
Fri 08:30:57 PM 36.8133 -113.0022 255° West 385 443 32,000  Level Los Angeles Center
Fri 08:31:59 PM 36.7853 -113.1322 255° West 386 444 32,000 -194 Level Los Angeles Center
Fri 08:33:01 PM 36.7564 -113.2617 254° West 387 445 31,600 -1,113 Descending Los Angeles Center
Fri 08:34:03 PM 36.7144 -113.4006 249° West 366 421 29,700 -1,839 Descending Los Angeles Center
Fri 08:35:05 PM 36.6806 -113.5167 250° West 361 415 27,800 -1,887 Descending Los Angeles Center
Fri 08:36:07 PM 36.6472 -113.6311 250° West 357 411 25,800 -1,839 Descending Los Angeles Center
Fri 08:37:09 PM 36.6142 -113.7428 250° West 352 405 24,000 -1,742 Descending Los Angeles Center
Fri 08:38:11 PM 36.5831 -113.8492 250° West 342 394 22,200 -1,742 Descending Los Angeles Center
Fri 08:39:13 PM 36.5528 -113.9525 250° West 331 381 20,400 -1,872 Descending Los Angeles Center
Fri 08:40:16 PM 36.5150 -114.0781 250° West 324 373 18,300 -1,872 Descending Los Angeles Center
Fri 08:41:18 PM 36.4853 -114.1831 251° West 324 373 16,500 -1,722 Descending Los Angeles Center
Fri 08:42:11 PM 36.4597 -114.2808 252° West 323 372 15,000 -1,714 Descending Los Angeles Center
Fri 08:42:42 PM 36.4425 -114.3294 246° West 312 359 14,100 -1,521 Descending Los Angeles Center
Fri 08:43:22 PM 36.4231 -114.3861 247° West 315 362 13,200 -1,583 Descending Los Angeles Center
Fri 08:43:54 PM 36.4058 -114.4467 251° West 307 353 12,200 -1,161 Descending Los Angeles Center
Fri 08:44:24 PM 36.3847 -114.4775 230° Southwest 316 364 12,000 -197 Descending Los Angeles Center
Fri 08:44:55 PM 36.3311 -114.4989 198° South 321 369 12,000 -387 Level Los Angeles Center
Fri 08:45:26 PM 36.2983 -114.5039 187° South 319 367 11,600 -984 Descending Los Angeles Center
Fri 08:45:56 PM 36.2447 -114.5200 194° South 313 360 11,000 -968 Descending Los Angeles Center
Fri 08:46:28 PM 36.2131 -114.5242 186° South 313 360 10,600 -982 Descending Los Angeles Center
Fri 08:46:51 PM 36.1689 -114.5378 194° South 303 349 10,100 -581 Descending Los Angeles Center
Fri 08:47:30 PM 36.1167 -114.5494 190° South 298 343 10,000 -197 Descending Los Angeles Center
Fri 08:47:52 PM 36.0994 -114.5667 219° Southwest 258 297 9,900 -387 Descending Los Angeles Center
Fri 08:48:32 PM 36.0706 -114.6058 228° Southwest 243 280 9,600 -1,000 Descending Los Angeles Center
Fri 08:49:34 PM 36.0747 -114.6803 274° West 225 259 8,200 -960 Descending Los Angeles Center
Fri 08:50:37 PM 36.0756 -114.7592 271° West 227 261 7,600 -750 Descending Los Angeles Center
Fri 08:50:54 PM 36.0736 -114.7911 266° West 229 264 7,200 -774 Descending Los Angeles Center
Fri 08:51:39 PM 36.0744 -114.8367 271° West 227 261 6,800 -689 Descending Los Angeles Center
Fri 08:51:55 PM 36.0733 -114.8683 268° West 209 241 6,500 -871 Descending Los Angeles Center
Fri 08:52:41 PM 36.0739 -114.9044 271° West 215 247 5,900 -1,082 Descending Los Angeles Center
Fri 08:52:56 PM 36.0736 -114.9294 269° West 173 199 5,400 -1,548 Descending Los Angeles Center
Fri 08:53:43 PM 36.0736 -114.9764 270° West 191 220 4,300 -1,101 Descending Los Angeles Center
Fri 08:54:45 PM 36.0744 -115.0358 271° West 180 207 3,400 -823 Descending Los Angeles Center
Fri 08:55:47 PM 36.0739 -115.0900 269° West 171 197 2,600 -677 Descending Los Angeles Center
Fri 08:56:49 PM 36.0744 -115.1442 271° West 161 185 2,000 -581 Descending Los Angeles Center
Fri 08:58:00 PM 36.0667 -115.1500 219° Southwest  Level FlightAware Approximate

Login

Don't have an account? Register now (free) for customized features, flight alerts, and more!